createdAt,value
2019-01-04T00:03:42.312Z,99.90
2019-01-04T00:08:43.559Z,99.90
2019-01-04T00:13:45.009Z,99.90
2019-01-04T00:18:46.359Z,99.90
2019-01-04T00:23:47.631Z,99.90
2019-01-04T00:28:48.978Z,99.90
2019-01-04T00:33:50.220Z,99.90
2019-01-04T00:38:51.455Z,99.90
2019-01-04T00:43:52.694Z,99.90
2019-01-04T00:48:53.934Z,99.90
2019-01-04T00:53:55.276Z,99.90
2019-01-04T00:59:25.657Z,99.90
2019-01-04T01:05:11.425Z,99.90
2019-01-04T01:10:36.911Z,99.90
2019-01-04T01:16:15.380Z,99.90
2019-01-04T01:21:31.175Z,99.90
2019-01-04T01:26:50.272Z,99.90
2019-01-04T01:31:54.602Z,99.90
2019-01-04T01:37:16.715Z,99.90
2019-01-04T01:42:57.170Z,99.90
2019-01-04T01:47:58.907Z,99.90
2019-01-04T01:53:00.163Z,99.90
2019-01-04T01:58:01.381Z,99.90
2019-01-04T02:03:02.675Z,99.90
2019-01-04T02:08:03.865Z,99.90
2019-01-04T02:13:05.119Z,99.90
2019-01-04T02:18:06.356Z,99.90
2019-01-04T02:23:07.598Z,99.90
2019-01-04T02:28:08.840Z,99.90
2019-01-04T02:33:10.073Z,99.90
2019-01-04T02:38:11.319Z,99.90
2019-01-04T02:43:12.567Z,99.90
2019-01-04T02:48:13.819Z,99.90
2019-01-04T02:53:15.066Z,99.90
2019-01-04T02:58:17.318Z,99.90
2019-01-04T03:03:18.559Z,99.90
2019-01-04T03:08:19.787Z,99.90
2019-01-04T03:13:21.046Z,99.90
2019-01-04T03:18:22.269Z,99.90
2019-01-04T03:23:23.510Z,99.90
2019-01-04T03:28:24.745Z,99.90
2019-01-04T03:33:25.973Z,99.90
2019-01-04T03:38:27.230Z,99.90
2019-01-04T03:43:28.475Z,99.90
2019-01-04T03:48:29.745Z,99.90
2019-01-04T03:53:30.983Z,99.90
2019-01-04T03:58:32.214Z,99.90
2019-01-04T04:03:33.439Z,99.90
2019-01-04T04:08:34.666Z,99.90
2019-01-04T04:13:35.902Z,99.90
2019-01-04T04:18:37.153Z,99.90
2019-01-04T04:23:38.374Z,99.90
2019-01-04T04:28:39.612Z,99.90
2019-01-04T04:33:40.850Z,99.90
2019-01-04T04:38:42.079Z,99.90
2019-01-04T04:43:43.333Z,99.90
2019-01-04T04:48:44.580Z,99.90
2019-01-04T04:53:45.843Z,99.90
2019-01-04T04:58:47.069Z,99.90
2019-01-04T05:03:48.413Z,99.90
2019-01-04T05:08:49.649Z,99.90
2019-01-04T05:13:50.896Z,99.90
2019-01-04T05:18:52.140Z,99.90
2019-01-04T05:23:53.382Z,99.90
2019-01-04T05:28:54.590Z,99.90
2019-01-04T05:33:55.841Z,99.90
2019-01-04T05:38:57.076Z,99.90
2019-01-04T05:43:58.318Z,99.90
2019-01-04T05:48:59.549Z,99.90
2019-01-04T05:54:00.782Z,99.90
2019-01-04T05:59:02.010Z,99.90
2019-01-04T06:04:03.344Z,99.50
2019-01-04T06:09:06.580Z,99.20
2019-01-04T06:14:07.812Z,99.90
2019-01-04T06:19:09.060Z,99.90
2019-01-04T06:24:10.308Z,99.90
2019-01-04T06:29:11.533Z,99.70
2019-01-04T06:34:12.805Z,99.10
2019-01-04T06:39:14.048Z,99.30
2019-01-04T06:44:15.276Z,99.10
2019-01-04T06:49:16.513Z,99.60
2019-01-04T06:54:40.267Z,98.90
2019-01-04T06:59:41.496Z,98.60
2019-01-04T07:04:42.727Z,99.00
2019-01-04T07:09:43.963Z,99.10
2019-01-04T07:14:45.197Z,99.20
2019-01-04T07:19:46.479Z,99.10
2019-01-04T07:24:47.716Z,98.20
2019-01-04T07:29:48.956Z,99.90
2019-01-04T07:34:50.226Z,97.70
2019-01-04T07:39:51.450Z,97.10
2019-01-04T07:44:52.707Z,96.90
2019-01-04T07:49:53.933Z,97.30
2019-01-04T07:54:55.181Z,97.40
2019-01-04T07:59:56.434Z,97.30
2019-01-04T08:04:57.673Z,98.50
2019-01-04T08:09:58.978Z,98.10
2019-01-04T08:15:00.181Z,97.80
2019-01-04T08:20:01.886Z,97.80
2019-01-04T08:25:05.331Z,97.40
2019-01-04T08:30:10.205Z,97.30
2019-01-04T08:35:11.461Z,97.30
2019-01-04T08:40:12.675Z,96.90
2019-01-04T08:45:14.021Z,96.80
2019-01-04T08:50:15.271Z,96.70
2019-01-04T08:55:16.620Z,93.80
2019-01-04T09:00:17.866Z,91.80
2019-01-04T09:05:19.094Z,90.70
2019-01-04T09:10:20.331Z,95.90
2019-01-04T09:15:21.587Z,93.50
2019-01-04T09:20:22.825Z,94.40
2019-01-04T09:25:24.174Z,94.40
2019-01-04T09:30:25.423Z,95.10
2019-01-04T09:35:26.678Z,92.80
2019-01-04T09:40:27.907Z,94.10
2019-01-04T09:45:29.167Z,95.80
2019-01-04T09:50:30.424Z,87.50
2019-01-04T09:55:31.673Z,89.10
2019-01-04T10:00:32.926Z,87.20
2019-01-04T10:05:34.174Z,88.90
2019-01-04T10:10:35.413Z,88.20
2019-01-04T10:15:36.643Z,88.50
2019-01-04T10:20:37.907Z,89.20
2019-01-04T10:25:39.179Z,85.50
2019-01-04T10:30:40.522Z,83.50
2019-01-04T10:35:41.780Z,81.60
2019-01-04T10:40:43.016Z,81.60
2019-01-04T10:45:44.260Z,81.10
2019-01-04T10:50:45.501Z,80.80
2019-01-04T10:55:46.744Z,80.40
2019-01-04T11:00:48.003Z,78.20
2019-01-04T11:05:49.253Z,78.90
2019-01-04T11:10:50.497Z,74.80
2019-01-04T11:15:51.732Z,72.80
2019-01-04T11:20:54.694Z,72.90
2019-01-04T11:26:01.696Z,73.60
2019-01-04T11:31:17.748Z,73.40
2019-01-04T11:36:24.712Z,73.50
2019-01-04T11:41:48.532Z,73.90
2019-01-04T11:47:13.615Z,74.40
2019-01-04T11:52:20.561Z,74.60
2019-01-04T11:57:21.817Z,74.60
2019-01-04T12:02:26.355Z,75.90
2019-01-04T12:07:26.345Z,76.30
2019-01-04T12:12:27.593Z,76.10
2019-01-04T12:17:28.872Z,76.00
2019-01-04T12:22:30.134Z,74.70
2019-01-04T12:27:33.238Z,74.60
2019-01-04T12:32:36.386Z,75.10
2019-01-04T12:37:37.748Z,74.70
2019-01-04T12:42:38.972Z,76.40
2019-01-04T12:47:40.238Z,74.10
2019-01-04T12:52:44.269Z,74.90
2019-01-04T12:57:45.531Z,75.20
2019-01-04T13:02:46.798Z,74.20
2019-01-04T13:07:48.052Z,75.00
2019-01-04T13:12:49.282Z,76.00
2019-01-04T13:17:50.567Z,76.30
2019-01-04T13:22:51.943Z,76.90
2019-01-04T13:27:53.237Z,76.90
2019-01-04T13:32:54.723Z,79.70
2019-01-04T13:37:55.967Z,82.70
2019-01-04T13:42:57.207Z,82.90
2019-01-04T13:47:58.511Z,83.00
2019-01-04T13:52:59.768Z,83.00
2019-01-04T13:58:01.021Z,86.00
2019-01-04T14:03:02.281Z,90.70
2019-01-04T14:08:03.552Z,93.30
2019-01-04T14:13:09.226Z,93.60
2019-01-04T14:18:08.118Z,94.10
2019-01-04T14:23:09.404Z,92.90
2019-01-04T14:28:10.661Z,91.80
2019-01-04T14:33:11.919Z,91.10
2019-01-04T14:38:14.086Z,88.80
2019-01-04T14:43:15.336Z,88.70
2019-01-04T14:48:16.587Z,88.20
2019-01-04T14:53:17.822Z,88.20
2019-01-04T14:58:19.088Z,88.10
2019-01-04T15:03:20.519Z,87.60
2019-01-04T15:08:21.793Z,87.70
2019-01-04T15:13:23.065Z,88.80
2019-01-04T15:18:24.310Z,88.70
2019-01-04T15:23:25.548Z,89.30
2019-01-04T15:28:26.903Z,90.10
2019-01-04T15:33:28.188Z,89.40
2019-01-04T15:38:29.417Z,90.60
2019-01-04T15:43:30.656Z,90.80
2019-01-04T15:48:31.895Z,92.20
2019-01-04T15:53:33.185Z,92.00
2019-01-04T15:58:34.464Z,91.60
2019-01-04T16:03:35.682Z,92.80
2019-01-04T16:08:36.956Z,95.40
2019-01-04T16:13:38.229Z,94.60
2019-01-04T16:18:39.514Z,94.90
2019-01-04T16:23:40.768Z,95.20
2019-01-04T16:28:42.013Z,94.60
2019-01-04T16:33:43.288Z,95.00
2019-01-04T16:38:44.658Z,94.80
2019-01-04T16:43:45.918Z,97.00
2019-01-04T16:48:47.270Z,97.00
2019-01-04T16:53:48.510Z,98.10
2019-01-04T16:58:49.789Z,98.50
2019-01-04T17:03:51.468Z,99.10
2019-01-04T17:08:52.722Z,99.50
2019-01-04T17:13:53.978Z,99.10
2019-01-04T17:18:55.270Z,98.70
2019-01-04T17:23:56.526Z,98.00
2019-01-04T17:28:57.778Z,98.00
2019-01-04T17:33:59.148Z,97.80
2019-01-04T17:39:00.605Z,97.80
2019-01-04T17:44:01.864Z,97.50
2019-01-04T17:49:03.232Z,97.40
2019-01-04T17:54:04.505Z,97.50
2019-01-04T17:59:05.773Z,97.70
2019-01-04T18:04:07.020Z,97.60
2019-01-04T18:09:08.497Z,98.20
2019-01-04T18:14:09.856Z,97.40
2019-01-04T18:19:11.189Z,97.40
2019-01-04T18:24:12.431Z,97.60
2019-01-04T18:29:13.683Z,97.10
2019-01-04T18:34:14.946Z,97.10
2019-01-04T18:39:16.347Z,97.00
2019-01-04T18:44:17.608Z,96.80
2019-01-04T18:49:18.893Z,97.10
2019-01-04T18:54:20.181Z,97.30
2019-01-04T18:59:21.452Z,97.50
2019-01-04T19:04:22.723Z,97.90
2019-01-04T19:09:24.082Z,98.10
2019-01-04T19:14:25.330Z,97.80
2019-01-04T19:19:26.611Z,97.40
2019-01-04T19:24:27.889Z,97.70
2019-01-04T19:29:29.146Z,97.70
2019-01-04T19:34:30.397Z,97.50
2019-01-04T19:39:31.793Z,97.70
2019-01-04T19:44:33.132Z,97.60
2019-01-04T19:49:34.395Z,97.80
2019-01-04T19:54:35.683Z,97.80
2019-01-04T19:59:37.015Z,97.80
2019-01-04T20:04:38.287Z,98.00
2019-01-04T20:10:33.036Z,98.00
2019-01-04T20:16:09.047Z,97.80
2019-01-04T20:21:28.609Z,97.80
2019-01-04T20:26:31.772Z,98.00
2019-01-04T20:31:51.665Z,98.00
2019-01-04T20:37:11.668Z,98.00
2019-01-04T20:42:23.967Z,98.00
2019-01-04T20:47:39.116Z,98.00
2019-01-04T20:52:48.328Z,98.20
2019-01-04T20:58:06.814Z,98.00
2019-01-04T21:03:15.932Z,98.10
2019-01-04T21:08:28.289Z,98.00
2019-01-04T21:13:34.334Z,97.90
2019-01-04T21:18:43.159Z,97.80
2019-01-04T21:23:55.522Z,97.90
2019-01-04T21:28:58.694Z,97.90
2019-01-04T21:34:10.540Z,97.60
2019-01-04T21:39:13.748Z,97.70
2019-01-04T21:44:19.823Z,97.50
2019-01-04T21:49:23.012Z,97.50
2019-01-04T21:54:44.192Z,97.50
2019-01-04T22:00:04.265Z,97.30
2019-01-04T22:05:07.532Z,97.30
2019-01-04T22:10:27.484Z,97.10
2019-01-04T22:15:39.903Z,97.20
2019-01-04T22:20:59.698Z,97.20
2019-01-04T22:26:05.808Z,97.30
2019-01-04T22:31:24.203Z,97.20
2019-01-04T22:36:44.160Z,97.10
2019-01-04T22:42:03.879Z,97.10
2019-01-04T22:47:09.817Z,97.20
2019-01-04T22:52:12.987Z,97.40
2019-01-04T22:57:33.096Z,97.40
2019-01-04T23:02:45.301Z,97.80
2019-01-04T23:08:03.411Z,97.00
2019-01-04T23:13:06.561Z,97.80
2019-01-04T23:18:26.354Z,97.90
2019-01-04T23:23:44.699Z,97.90
2019-01-04T23:28:47.953Z,98.00
2019-01-04T23:34:07.530Z,98.00
2019-01-04T23:39:10.704Z,98.90
2019-01-04T23:44:30.659Z,98.50
2019-01-04T23:49:45.991Z,98.40
2019-01-04T23:54:49.158Z,98.30
2019-01-04T23:59:57.946Z,98.30
